ADDS METAR Data INFO
IDs: Format: Raw Decoded Include TAF

Data at: 0354 UTC 18 Oct 2017

KACV 180308Z AUTO 32005KT 3SM BR FEW007 10/09 A3014 RMK AO2 T01000089
KACV 180253Z AUTO 24003KT 10SM CLR 11/09 A3013 RMK AO2 SLP209 T01060089 53005
KACV 180153Z AUTO 00000KT 10SM CLR 12/09 A3012 RMK AO2 SLP205 T01220094
KACV 180053Z AUTO 34008KT 10SM CLR 14/10 A3012 RMK AO2 SLP204 T01440100
KACV 172353Z AUTO 31007KT 10SM CLR 16/10 A3011 RMK AO2 SLP202 T01610100 10167 20100 58007
KACV 172253Z AUTO 33013KT 10SM CLR 16/10 A3013 RMK AO2 SLP209 T01610100
KACV 172153Z AUTO 33010G14KT 10SM CLR 16/09 A3013 RMK AO2 SLP209 T01560094
KACV 172053Z AUTO VRB04KT 10SM CLR 14/10 A3013 RMK AO2 SLP209 T01440100 58015
KACV 171953Z AUTO 30006KT 10SM SCT005 12/10 A3017 RMK AO2 SLP221 T01220100
KACV 171903Z AUTO 34007KT 7SM OVC002 11/09 A3018 RMK AO2 T01060094
KACV 171853Z AUTO 34005KT 2SM R32/3000VP6000FT BR OVC002 10/10 A3018 RMK AO2 SLP226 T01000100
KACV 171832Z AUTO 33009KT 1 3/4SM R32/2400VP6000FT BR OVC002 10/10 A3020 RMK AO2 VIS 1 1/4V3 T01000100
KACV 171753Z AUTO 28003KT 9SM OVC003 10/10 A3018 RMK AO2 SLP226 T01000100 10100 20072 50003
KACV 171653Z AUTO 19004KT 4SM BR OVC002 09/09 A3019 RMK AO2 SLP229 T00940094
KACV 171632Z AUTO 15006KT 2SM R32/4500VP6000FT BR OVC002 09/09 A3018 RMK AO2 T00940094
KACV 171553Z AUTO 00000KT 1SM R32/4000VP6000FT BR OVC002 09/09 A3019 RMK AO2 SLP229 T00940094
KACV 171528Z AUTO 00000KT 1/2SM R32/2600V3500FT FG VV002 09/09 A3018 RMK AO2 T00940094
KACV 171453Z AUTO 00000KT 1/4SM R32/1800V2600FT FG VV002 09/09 A3017 RMK AO2 SLP222 T00890089 53010
KACV 171440Z AUTO 00000KT 1/2SM R32/1800V2000FT FG VV002 09/09 A3017 RMK AO2 T00940094
KACV 171425Z AUTO 00000KT 1/4SM R32/1800V3500FT FG VV002 09/09 A3016 RMK AO2 T00890089
KACV 171416Z AUTO 00000KT 1/4SM R32/1800V2200FT FG VV002 09/09 A3016 RMK AO2 T00940094
KACV 171410Z AUTO 00000KT 1/2SM R32/2200V2400FT FG VV002 09/09 A3015 RMK AO2 T00940094
KACV 171402Z AUTO 00000KT 1/4SM R32/2000V2200FT FG VV002 09/09 A3016 RMK AO2 T00940094
KACV 171353Z AUTO 00000KT 1/2SM R32/1800V2000FT FG VV002 09/09 A3015 RMK AO2 SLP216 T00940094
KACV 171344Z AUTO 00000KT 1/4SM R32/1600V2000FT FG VV002 09/09 A3015 RMK AO2 T00940094
KACV 171329Z AUTO 00000KT 1/4SM R32/2000V2400FT FG VV002 09/09 A3014 RMK AO2 T00940094
KACV 171253Z AUTO 00000KT 1/2SM R32/2200V2400FT FG VV002 09/09 A3014 RMK AO2 SLP212 T00890089
KACV 171251Z AUTO 00000KT 1/2SM R32/2200V2400FT FG VV002 09/09 A3014 RMK AO2
KACV 171228Z AUTO 00000KT 1/2SM R32/1600V2200FT FG VV002 08/08 A3013 RMK AO2 T00830083
KACV 171220Z AUTO 00000KT 1/2SM R32/1600V2600FT FG VV002 08/08 A3013 RMK AO2 T00830083
KACV 171210Z AUTO 00000KT 1 1/2SM R32/2200VP6000FT BR OVC002 08/08 A3013 RMK AO2 T00780078
KACV 171153Z AUTO 10003KT 10SM OVC003 07/07 A3012 RMK AO2 CIG 002V005 SLP206 T00720072 10083 20056 53003
KACV 171131Z AUTO 00000KT 7SM BKN005 06/06 A3012 RMK AO2 T00610061
KACV 171122Z AUTO 00000KT 9SM SCT005 06/06 A3012 RMK AO2 T00560056
KACV 171053Z AUTO 00000KT 9SM CLR 06/06 A3011 RMK AO2 SLP204 T00560056
KACV 170953Z AUTO 00000KT 9SM CLR 07/07 A3012 RMK AO2 SLP205 T00720067
KACV 170853Z AUTO 00000KT 10SM CLR 07/07 A3011 RMK AO2 SLP203 T00720072 55001
KACV 170753Z AUTO 09003KT 10SM CLR 07/07 A3011 RMK AO2 SLP201 T00670067 402000050
KACV 170653Z AUTO 00000KT 10SM CLR 07/07 A3012 RMK AO2 SLP204 T00720067
KACV 170553Z AUTO 00000KT 10SM CLR 08/07 A3012 RMK AO2 SLP204 T00830072 10167 20078 53008
KACV 170453Z AUTO 00000KT 10SM CLR 09/08 A3011 RMK AO2 SLP201 T00940078
KACV 170353Z AUTO 11003KT 10SM CLR 10/08 A3010 RMK AO2 SLP198 T01000083
KACV 170253Z AUTO 14004KT 10SM CLR 12/07 A3009 RMK AO2 SLP196 T01170072 53001
KACV 170153Z AUTO 22005KT 6SM BR CLR 11/08 A3009 RMK AO2 SLP195 T01060083
KACV 170053Z AUTO 19004KT 10SM CLR 16/08 A3008 RMK AO2 SLP191 T01560083
KACV 162353Z AUTO 19006KT 10SM CLR 17/08 A3009 RMK AO2 SLP194 T01670083 10200 20139 56018
KACV 162253Z AUTO 28004KT 10SM CLR 14/09 A3010 RMK AO2 SLP199 T01440089
KACV 162153Z AUTO 28004KT 10SM CLR 19/08 A3012 RMK AO2 SLP203 T01890078
KACV 162053Z AUTO 30005KT 10SM CLR 17/07 A3014 RMK AO2 SLP212 T01720067 58015
KACV 161953Z AUTO 32004KT 10SM CLR 18/06 A3016 RMK AO2 SLP217 T01830056
KACV 161853Z AUTO 31005KT 10SM CLR 16/07 A3018 RMK AO2 SLP225 T01560072
KACV 161753Z AUTO 31004KT 6SM HZ CLR 17/06 A3018 RMK AO2 SLP227 T01670061 10178 20050 50006
KACV 161653Z AUTO 00000KT 10SM CLR 15/06 A3019 RMK AO2 SLP228 T01500056